createdAt,value
2019-04-28T00:00:01.624Z,9.00
2019-04-28T00:01:01.592Z,8.98
2019-04-28T00:02:01.579Z,8.89
2019-04-28T00:03:01.569Z,8.93
2019-04-28T00:04:03.349Z,8.88
2019-04-28T00:05:01.612Z,8.79
2019-04-28T00:06:01.530Z,8.68
2019-04-28T00:07:01.874Z,8.80
2019-04-28T00:08:01.507Z,8.89
2019-04-28T00:09:01.811Z,8.85
2019-04-28T00:10:01.480Z,8.93
2019-04-28T00:11:01.915Z,8.85
2019-04-28T00:12:01.831Z,8.78
2019-04-28T00:13:01.445Z,8.80
2019-04-28T00:14:01.980Z,8.71
2019-04-28T00:15:02.456Z,8.67
2019-04-28T00:16:01.729Z,8.75
2019-04-28T00:17:01.393Z,8.88
2019-04-28T00:18:01.571Z,8.76
2019-04-28T00:19:01.374Z,8.83
2019-04-28T00:20:01.488Z,8.96
2019-04-28T00:21:01.347Z,8.97
2019-04-28T00:22:01.335Z,9.06
2019-04-28T00:23:03.820Z,8.97
2019-04-28T00:24:01.768Z,9.16
2019-04-28T00:25:01.647Z,8.97
2019-04-28T00:26:01.575Z,9.10
2019-04-28T00:27:01.799Z,8.94
2019-04-28T00:28:01.690Z,9.08
2019-04-28T00:29:01.354Z,9.04
2019-04-28T00:30:02.056Z,8.98
2019-04-28T00:31:02.482Z,8.94
2019-04-28T00:32:01.281Z,8.88
2019-04-28T00:33:01.780Z,8.80
2019-04-28T00:34:01.480Z,8.78
2019-04-28T00:35:02.359Z,8.71
2019-04-28T00:36:01.607Z,8.82
2019-04-28T00:37:01.370Z,8.83
2019-04-28T00:38:01.519Z,8.89
2019-04-28T00:39:01.642Z,8.76
2019-04-28T00:40:01.204Z,8.79
2019-04-28T00:41:02.411Z,8.78
2019-04-28T00:42:03.083Z,8.75
2019-04-28T00:43:01.079Z,8.71
2019-04-28T00:44:01.913Z,8.63
2019-04-28T00:45:01.641Z,8.68
2019-04-28T00:46:01.051Z,8.65
2019-04-28T00:47:01.292Z,8.70
2019-04-28T00:48:01.126Z,8.71
2019-04-28T00:49:02.143Z,8.70
2019-04-28T00:50:02.170Z,8.68
2019-04-28T00:51:01.816Z,8.52
2019-04-28T00:52:03.036Z,8.57
2019-04-28T00:53:01.728Z,8.42
2019-04-28T00:54:00.946Z,8.57
2019-04-28T00:55:01.261Z,8.58
2019-04-28T00:56:02.173Z,8.55
2019-04-28T00:57:01.491Z,8.50
2019-04-28T00:58:01.043Z,8.54
2019-04-28T00:59:01.648Z,8.43
2019-04-28T01:00:02.372Z,8.50
2019-04-28T01:01:01.397Z,8.52
2019-04-28T01:02:01.232Z,8.46
2019-04-28T01:03:02.187Z,8.42
2019-04-28T01:04:02.062Z,8.34
2019-04-28T01:05:01.526Z,8.43
2019-04-28T01:06:01.869Z,8.57
2019-04-28T01:07:01.628Z,8.61
2019-04-28T01:08:01.203Z,8.63
2019-04-28T01:09:01.379Z,8.61
2019-04-28T01:10:01.399Z,8.57
2019-04-28T01:11:01.823Z,8.43
2019-04-28T01:12:01.791Z,8.43
2019-04-28T01:13:02.102Z,8.43
2019-04-28T01:14:01.716Z,8.39
2019-04-28T01:15:04.555Z,8.31
2019-04-28T01:16:00.679Z,8.45
2019-04-28T01:17:00.659Z,8.37
2019-04-28T01:18:00.827Z,8.28
2019-04-28T01:19:00.634Z,8.43
2019-04-28T01:20:00.624Z,8.37
2019-04-28T01:21:00.625Z,8.28
2019-04-28T01:22:00.597Z,8.29
2019-04-28T01:23:00.587Z,8.25
2019-04-28T01:24:00.573Z,8.27
2019-04-28T01:25:00.560Z,8.25
2019-04-28T01:26:00.549Z,8.21
2019-04-28T01:27:00.579Z,8.25
2019-04-28T01:28:00.524Z,8.12
2019-04-28T01:29:00.512Z,8.24
2019-04-28T01:30:08.276Z,8.25
2019-04-28T01:31:00.488Z,8.18
2019-04-28T01:32:00.495Z,8.24
2019-04-28T01:33:00.462Z,8.13
2019-04-28T01:34:01.667Z,8.20
2019-04-28T01:35:00.436Z,8.25
2019-04-28T01:36:00.572Z,8.13
2019-04-28T01:37:00.411Z,8.10
2019-04-28T01:38:00.400Z,8.13
2019-04-28T01:39:00.388Z,8.00
2019-04-28T01:40:00.378Z,8.18
2019-04-28T01:41:01.574Z,8.18
2019-04-28T01:42:00.348Z,8.21
2019-04-28T01:43:00.340Z,8.09
2019-04-28T01:44:00.323Z,8.09
2019-04-28T01:45:00.697Z,8.03
2019-04-28T01:46:00.300Z,7.99
2019-04-28T01:47:01.196Z,8.02
2019-04-28T01:48:02.174Z,7.92
2019-04-28T01:49:00.265Z,7.96
2019-04-28T01:50:02.067Z,7.94
2019-04-28T01:51:00.241Z,7.96
2019-04-28T01:52:01.006Z,7.95
2019-04-28T01:53:00.213Z,7.95
2019-04-28T01:54:00.290Z,7.95
2019-04-28T01:55:00.586Z,7.96
2019-04-28T01:56:00.176Z,7.99
2019-04-28T01:57:01.374Z,8.09
2019-04-28T01:58:00.152Z,8.07
2019-04-28T01:59:00.363Z,7.96
2019-04-28T02:00:00.127Z,7.99
2019-04-28T02:01:00.116Z,8.12
2019-04-28T02:02:00.341Z,8.12
2019-04-28T02:03:02.038Z,8.21
2019-04-28T02:04:00.377Z,8.17
2019-04-28T02:05:00.105Z,8.18
2019-04-28T02:06:00.324Z,8.18
2019-04-28T02:07:00.070Z,8.22
2019-04-28T02:08:00.382Z,8.13
2019-04-28T02:09:00.891Z,8.29
2019-04-28T02:10:00.746Z,8.18
2019-04-28T02:11:00.299Z,8.27
2019-04-28T02:12:00.812Z,8.27
2019-04-28T02:12:59.989Z,8.14
2019-04-28T02:13:59.951Z,8.09
2019-04-28T02:15:00.969Z,8.10
2019-04-28T02:16:00.197Z,8.10
2019-04-28T02:17:00.490Z,8.04
2019-04-28T02:18:00.216Z,8.10
2019-04-28T02:18:59.910Z,8.07
2019-04-28T02:20:00.596Z,8.09
2019-04-28T02:20:59.865Z,8.14
2019-04-28T02:21:59.852Z,7.99
2019-04-28T02:22:59.952Z,8.02
2019-04-28T02:24:00.009Z,7.99
2019-04-28T02:25:00.298Z,8.07
2019-04-28T02:25:59.832Z,8.00
2019-04-28T02:27:00.802Z,7.99
2019-04-28T02:27:59.774Z,8.02
2019-04-28T02:29:00.305Z,7.99
2019-04-28T02:30:00.303Z,7.99
2019-04-28T02:31:02.267Z,7.96
2019-04-28T02:32:02.212Z,7.94
2019-04-28T02:33:01.620Z,7.92
2019-04-28T02:34:00.768Z,7.94
2019-04-28T02:35:01.472Z,7.96
2019-04-28T02:36:01.507Z,7.96
2019-04-28T02:37:01.406Z,8.02
2019-04-28T02:38:00.164Z,7.91
2019-04-28T02:39:00.820Z,7.94
2019-04-28T02:40:00.744Z,7.92
2019-04-28T02:41:00.200Z,7.95
2019-04-28T02:42:01.489Z,7.99
2019-04-28T02:43:01.250Z,7.94
2019-04-28T02:44:00.909Z,7.81
2019-04-28T02:45:00.483Z,7.77
2019-04-28T02:46:00.704Z,7.79
2019-04-28T02:47:00.776Z,7.77
2019-04-28T02:48:01.018Z,7.77
2019-04-28T02:49:00.950Z,7.79
2019-04-28T02:50:00.852Z,7.74
2019-04-28T02:51:01.269Z,7.62
2019-04-28T02:52:00.020Z,7.63
2019-04-28T02:53:01.662Z,7.62
2019-04-28T02:54:00.575Z,7.63
2019-04-28T02:54:59.492Z,7.57
2019-04-28T02:56:00.869Z,7.55
2019-04-28T02:57:01.305Z,7.52
2019-04-28T02:58:01.497Z,7.48
2019-04-28T02:59:00.968Z,7.52
2019-04-28T03:00:00.521Z,7.54
2019-04-28T03:01:09.780Z,7.52
2019-04-28T03:02:00.630Z,7.67
2019-04-28T03:03:01.408Z,7.62
2019-04-28T03:04:00.356Z,7.60
2019-04-28T03:05:00.330Z,7.71
2019-04-28T03:06:01.373Z,7.67
2019-04-28T03:07:01.293Z,7.62
2019-04-28T03:08:01.171Z,7.60
2019-04-28T03:09:00.315Z,7.57
2019-04-28T03:10:03.183Z,7.63
2019-04-28T03:11:00.904Z,7.51
2019-04-28T03:12:01.425Z,7.54
2019-04-28T03:13:01.176Z,7.62
2019-04-28T03:14:00.904Z,7.51
2019-04-28T03:15:00.667Z,7.54
2019-04-28T03:16:01.505Z,7.55
2019-04-28T03:17:00.881Z,7.54
2019-04-28T03:18:01.685Z,7.52
2019-04-28T03:19:01.248Z,7.52
2019-04-28T03:20:01.117Z,7.60
2019-04-28T03:21:03.442Z,7.52
2019-04-28T03:22:01.304Z,7.67
2019-04-28T03:23:00.899Z,7.63
2019-04-28T03:24:01.287Z,7.85
2019-04-28T03:25:00.908Z,7.85
2019-04-28T03:26:01.356Z,7.81
2019-04-28T03:27:00.624Z,7.89
2019-04-28T03:28:00.627Z,7.89
2019-04-28T03:29:01.023Z,7.81
2019-04-28T03:30:00.794Z,7.82
2019-04-28T03:31:03.230Z,7.73
2019-04-28T03:32:22.919Z,7.71
2019-04-28T03:33:04.646Z,7.66
2019-04-28T03:34:03.409Z,7.69
2019-04-28T03:35:03.044Z,7.55
2019-04-28T03:36:03.673Z,7.52
2019-04-28T03:37:00.364Z,7.51
2019-04-28T03:38:01.181Z,7.51
2019-04-28T03:39:00.769Z,7.48
2019-04-28T03:40:00.508Z,7.51
2019-04-28T03:41:01.052Z,7.52
2019-04-28T03:42:00.140Z,7.63
2019-04-28T03:43:00.281Z,7.48
2019-04-28T03:44:00.507Z,7.52
2019-04-28T03:45:01.020Z,7.44
2019-04-28T03:46:00.755Z,7.50
2019-04-28T03:47:00.685Z,7.51
2019-04-28T03:48:00.305Z,7.48
2019-04-28T03:49:00.770Z,7.47
2019-04-28T03:50:00.127Z,7.44
2019-04-28T03:51:00.682Z,7.42
2019-04-28T03:52:00.416Z,7.36
2019-04-28T03:53:00.907Z,7.39
2019-04-28T03:54:00.610Z,7.47
2019-04-28T03:55:00.488Z,7.42
2019-04-28T03:56:00.871Z,7.48
2019-04-28T03:57:01.091Z,7.47
2019-04-28T03:58:00.956Z,7.50
2019-04-28T03:59:00.464Z,7.41
2019-04-28T04:00:01.445Z,7.36
2019-04-28T04:01:02.658Z,7.26
2019-04-28T04:02:02.331Z,7.21
2019-04-28T04:03:00.826Z,7.24
2019-04-28T04:04:03.094Z,7.26
2019-04-28T04:05:03.324Z,7.23
2019-04-28T04:06:00.706Z,7.14
2019-04-28T04:07:01.308Z,7.14
2019-04-28T04:08:00.604Z,7.14
2019-04-28T04:09:00.286Z,6.99
2019-04-28T04:10:00.763Z,7.01
2019-04-28T04:11:00.258Z,7.04
2019-04-28T04:12:00.324Z,7.04
2019-04-28T04:13:00.819Z,6.94
2019-04-28T04:14:01.404Z,6.97
2019-04-28T04:15:01.366Z,7.00
2019-04-28T04:16:01.312Z,6.94
2019-04-28T04:17:00.129Z,7.00
2019-04-28T04:18:01.178Z,7.00
2019-04-28T04:19:00.545Z,7.09
2019-04-28T04:19:58.356Z,7.19
2019-04-28T04:21:00.646Z,7.15
2019-04-28T04:22:00.376Z,7.16
2019-04-28T04:23:01.253Z,7.15
2019-04-28T04:24:00.773Z,7.15
2019-04-28T04:24:58.291Z,7.05
2019-04-28T04:25:58.277Z,7.08
2019-04-28T04:27:00.657Z,7.05
2019-04-28T04:28:00.425Z,6.99
2019-04-28T04:29:00.988Z,7.04
2019-04-28T04:30:01.123Z,7.00
2019-04-28T04:31:02.496Z,7.04
2019-04-28T04:32:11.689Z,7.04
2019-04-28T04:33:00.889Z,6.97
2019-04-28T04:34:00.718Z,7.08
2019-04-28T04:35:00.532Z,7.08
2019-04-28T04:36:00.796Z,7.04
2019-04-28T04:37:00.513Z,6.99
2019-04-28T04:38:00.522Z,7.05
2019-04-28T04:38:58.109Z,7.01
2019-04-28T04:39:58.097Z,7.01
2019-04-28T04:40:58.086Z,7.15
2019-04-28T04:42:00.488Z,7.18
2019-04-28T04:42:58.061Z,7.19
2019-04-28T04:44:00.755Z,7.11
2019-04-28T04:45:00.439Z,7.11
2019-04-28T04:45:58.021Z,7.14
2019-04-28T04:47:00.790Z,7.05
2019-04-28T04:48:00.309Z,7.00
2019-04-28T04:49:00.428Z,7.11
2019-04-28T04:50:00.195Z,7.08
2019-04-28T04:50:57.959Z,7.21
2019-04-28T04:51:59.918Z,7.14
2019-04-28T04:52:57.928Z,7.19
2019-04-28T04:54:00.700Z,7.11
2019-04-28T04:54:57.903Z,7.08
2019-04-28T04:56:00.261Z,7.09
2019-04-28T04:56:59.926Z,7.15
2019-04-28T04:57:57.865Z,7.19
2019-04-28T04:59:02.236Z,7.19
2019-04-28T04:59:59.887Z,7.19
2019-04-28T05:00:57.824Z,7.16
2019-04-28T05:02:00.013Z,7.12
2019-04-28T05:02:57.802Z,7.16
2019-04-28T05:03:59.549Z,7.15
2019-04-28T05:04:57.771Z,7.21
2019-04-28T05:05:57.763Z,7.12
2019-04-28T05:06:59.644Z,7.12
2019-04-28T05:07:57.735Z,7.12
2019-04-28T05:08:57.723Z,7.12
2019-04-28T05:09:59.462Z,7.14
2019-04-28T05:10:57.697Z,7.12
2019-04-28T05:11:59.692Z,7.19
2019-04-28T05:12:57.671Z,7.16
2019-04-28T05:13:59.599Z,7.23
2019-04-28T05:14:57.643Z,7.18
2019-04-28T05:15:57.633Z,7.29
2019-04-28T05:16:57.618Z,7.29
2019-04-28T05:17:57.604Z,7.39
2019-04-28T05:18:59.903Z,7.36
2019-04-28T05:19:57.580Z,7.24
2019-04-28T05:20:59.344Z,7.24
2019-04-28T05:21:57.554Z,7.29
2019-04-28T05:22:57.542Z,7.24
2019-04-28T05:23:57.528Z,7.24
2019-04-28T05:24:57.513Z,7.45
2019-04-28T05:26:03.360Z,7.58
2019-04-28T05:26:59.432Z,7.63
2019-04-28T05:27:59.277Z,7.81
2019-04-28T05:28:59.158Z,7.79
2019-04-28T05:30:02.555Z,7.79
2019-04-28T05:30:57.435Z,7.77
2019-04-28T05:31:59.705Z,7.77
2019-04-28T05:32:57.524Z,7.81
2019-04-28T05:33:57.399Z,7.69
2019-04-28T05:34:57.382Z,7.67
2019-04-28T05:36:01.113Z,7.63
2019-04-28T05:36:57.362Z,7.55
2019-04-28T05:37:57.344Z,7.52
2019-04-28T05:38:57.333Z,7.48
2019-04-28T05:39:57.321Z,7.44
2019-04-28T05:40:57.306Z,7.44
2019-04-28T05:41:57.295Z,7.39
2019-04-28T05:42:57.279Z,7.42
2019-04-28T05:43:57.272Z,7.48
2019-04-28T05:44:57.255Z,7.41
2019-04-28T05:45:57.241Z,7.37
2019-04-28T05:46:57.229Z,7.52
2019-04-28T05:47:57.217Z,7.69
2019-04-28T05:48:57.204Z,7.63
2019-04-28T05:49:57.190Z,7.63
2019-04-28T05:50:57.178Z,7.55
2019-04-28T05:51:57.165Z,7.57
2019-04-28T05:52:57.150Z,7.70
2019-04-28T05:53:57.137Z,7.70
2019-04-28T05:54:57.124Z,7.76
2019-04-28T05:55:57.112Z,7.73
2019-04-28T05:56:57.096Z,7.79
2019-04-28T05:57:57.086Z,7.69
2019-04-28T05:58:57.073Z,7.77
2019-04-28T06:00:00.163Z,7.67
2019-04-28T06:00:57.045Z,7.74
2019-04-28T06:01:57.033Z,7.71
2019-04-28T06:02:57.060Z,7.84
2019-04-28T06:03:57.010Z,7.82
2019-04-28T06:04:56.994Z,7.73
2019-04-28T06:05:57.170Z,7.70
2019-04-28T06:06:56.969Z,7.74
2019-04-28T06:07:56.958Z,7.74
2019-04-28T06:08:56.943Z,7.79
2019-04-28T06:09:56.927Z,7.77
2019-04-28T06:10:56.919Z,7.74
2019-04-28T06:11:56.906Z,7.77
2019-04-28T06:12:56.890Z,7.79
2019-04-28T06:13:56.879Z,7.76
2019-04-28T06:14:56.867Z,8.06
2019-04-28T06:15:56.851Z,8.10
2019-04-28T06:16:56.841Z,8.06
2019-04-28T06:17:56.826Z,8.13
2019-04-28T06:18:56.814Z,7.99
2019-04-28T06:19:56.802Z,7.94
2019-04-28T06:20:56.786Z,7.96
2019-04-28T06:21:56.775Z,7.82
2019-04-28T06:22:56.761Z,7.79
2019-04-28T06:23:56.752Z,7.70
2019-04-28T06:24:56.734Z,7.73
2019-04-28T06:25:56.723Z,7.71
2019-04-28T06:26:56.710Z,7.69
2019-04-28T06:27:56.698Z,7.60
2019-04-28T06:28:56.685Z,7.58
2019-04-28T06:30:56.677Z,7.54
2019-04-28T06:31:56.644Z,7.45
2019-04-28T06:33:07.103Z,7.44
2019-04-28T06:33:56.619Z,7.45
2019-04-28T06:34:56.606Z,7.42
2019-04-28T06:35:56.594Z,7.48
2019-04-28T06:36:56.583Z,7.42
2019-04-28T06:37:56.568Z,7.39
2019-04-28T06:38:56.557Z,7.39
2019-04-28T06:39:56.545Z,7.39
2019-04-28T06:40:56.528Z,7.39
2019-04-28T06:41:56.520Z,7.42
2019-04-28T06:42:56.505Z,7.32
2019-04-28T06:43:56.496Z,7.24
2019-04-28T06:44:56.478Z,7.48
2019-04-28T06:45:56.465Z,7.51
2019-04-28T06:46:56.450Z,7.52
2019-04-28T06:47:56.439Z,7.50
2019-04-28T06:48:56.428Z,7.57
2019-04-28T06:49:56.413Z,7.51
2019-04-28T06:50:56.400Z,7.63
2019-04-28T06:51:56.390Z,7.69
2019-04-28T06:52:56.377Z,7.63
2019-04-28T06:53:56.362Z,7.73
2019-04-28T06:54:56.353Z,7.69
2019-04-28T06:55:56.337Z,7.66
2019-04-28T06:56:56.325Z,7.67
2019-04-28T06:57:56.311Z,7.63
2019-04-28T06:58:59.196Z,7.58
2019-04-28T06:59:56.286Z,7.66
2019-04-28T07:00:56.273Z,7.60
2019-04-28T07:01:56.261Z,7.60
2019-04-28T07:02:56.250Z,7.67
2019-04-28T07:03:56.239Z,7.69
2019-04-28T07:05:02.176Z,7.77
2019-04-28T07:05:56.211Z,7.94
2019-04-28T07:06:56.200Z,7.91
2019-04-28T07:07:56.191Z,7.91
2019-04-28T07:08:56.170Z,7.92
2019-04-28T07:09:56.159Z,7.91
2019-04-28T07:10:56.147Z,7.77
2019-04-28T07:11:56.133Z,7.84
2019-04-28T07:12:56.126Z,7.76
2019-04-28T07:13:56.108Z,7.81
2019-04-28T07:14:56.095Z,7.70
2019-04-28T07:15:56.084Z,7.69
2019-04-28T07:16:56.070Z,7.55
2019-04-28T07:17:56.125Z,7.73
2019-04-28T07:18:56.046Z,7.70
2019-04-28T07:19:56.031Z,7.69
2019-04-28T07:20:56.019Z,7.69
2019-04-28T07:21:56.006Z,7.69
2019-04-28T07:22:55.992Z,7.69
2019-04-28T07:23:55.983Z,7.62
2019-04-28T07:24:55.968Z,7.60
2019-04-28T07:25:55.958Z,7.57
2019-04-28T07:26:55.946Z,7.55
2019-04-28T07:27:55.930Z,7.63
2019-04-28T07:28:55.917Z,7.69
2019-04-28T07:29:55.906Z,7.63
2019-04-28T07:30:55.892Z,7.67
2019-04-28T07:31:55.879Z,7.66
2019-04-28T07:32:55.868Z,7.58
2019-04-28T07:33:55.856Z,7.60
2019-04-28T07:34:55.841Z,7.62
2019-04-28T07:35:55.831Z,7.70
2019-04-28T07:36:55.848Z,7.67
2019-04-28T07:37:55.803Z,7.77
2019-04-28T07:38:55.793Z,7.71
2019-04-28T07:39:56.843Z,7.81
2019-04-28T07:40:55.766Z,7.89
2019-04-28T07:41:55.753Z,7.99
2019-04-28T07:42:55.741Z,7.94
2019-04-28T07:43:55.728Z,8.03
2019-04-28T07:44:55.716Z,7.99
2019-04-28T07:45:55.707Z,7.95
2019-04-28T07:46:55.693Z,8.03
2019-04-28T07:47:55.677Z,8.07
2019-04-28T07:48:55.666Z,8.10
2019-04-28T07:49:55.652Z,8.25
2019-04-28T07:50:55.640Z,8.31
2019-04-28T07:51:55.631Z,8.32
2019-04-28T07:52:55.616Z,8.36
2019-04-28T07:53:55.605Z,8.47
2019-04-28T07:54:55.590Z,8.64
2019-04-28T07:55:55.581Z,8.80
2019-04-28T07:56:55.566Z,9.01
2019-04-28T07:57:55.553Z,9.10
2019-04-28T07:58:55.542Z,9.30
2019-04-28T07:59:55.530Z,9.34
2019-04-28T08:00:55.519Z,9.34
2019-04-28T08:01:55.506Z,9.27
2019-04-28T08:02:55.493Z,9.32
2019-04-28T08:03:57.506Z,9.23
2019-04-28T08:04:55.469Z,9.30
2019-04-28T08:05:55.460Z,9.24
2019-04-28T08:06:55.443Z,9.30
2019-04-28T08:07:55.434Z,9.24
2019-04-28T08:08:55.423Z,9.31
2019-04-28T08:09:55.411Z,9.30
2019-04-28T08:10:55.402Z,9.30
2019-04-28T08:11:55.386Z,9.38
2019-04-28T08:12:55.377Z,9.41
2019-04-28T08:13:55.363Z,9.32
2019-04-28T08:14:55.352Z,9.31
2019-04-28T08:15:55.341Z,9.34
2019-04-28T08:16:55.329Z,9.37
2019-04-28T08:17:55.316Z,9.44
2019-04-28T08:18:55.303Z,9.63
2019-04-28T08:19:55.293Z,9.73
2019-04-28T08:20:55.279Z,9.86
2019-04-28T08:21:55.271Z,9.93
2019-04-28T08:22:55.259Z,9.98
2019-04-28T08:23:55.250Z,9.93
2019-04-28T08:24:55.234Z,10.07
2019-04-28T08:25:55.225Z,10.11
2019-04-28T08:26:55.213Z,10.18
2019-04-28T08:27:55.202Z,10.25
2019-04-28T08:28:55.188Z,10.28
2019-04-28T08:29:58.792Z,10.26
2019-04-28T08:30:55.170Z,10.11
2019-04-28T08:31:55.158Z,10.14
2019-04-28T08:32:55.145Z,10.31
2019-04-28T08:34:02.038Z,10.36
2019-04-28T08:34:55.124Z,10.63
2019-04-28T08:35:55.112Z,10.72
2019-04-28T08:36:55.108Z,10.91
2019-04-28T08:37:55.092Z,11.21
2019-04-28T08:38:55.082Z,11.33
2019-04-28T08:39:55.071Z,11.26
2019-04-28T08:40:55.057Z,11.39
2019-04-28T08:41:55.049Z,11.24
2019-04-28T08:42:55.036Z,11.33
2019-04-28T08:43:55.025Z,11.23
2019-04-28T08:44:55.014Z,11.11
2019-04-28T08:45:55.008Z,11.01
2019-04-28T08:46:54.990Z,10.60
2019-04-28T08:47:54.984Z,10.70
2019-04-28T08:48:54.975Z,10.62
2019-04-28T08:49:54.962Z,10.72
2019-04-28T08:50:54.949Z,10.66
2019-04-28T08:51:54.941Z,10.60
2019-04-28T08:52:54.926Z,10.55
2019-04-28T08:53:54.922Z,10.38
2019-04-28T08:54:54.919Z,10.29
2019-04-28T08:55:54.895Z,10.16
2019-04-28T08:56:54.886Z,10.16
2019-04-28T08:57:54.874Z,10.13
2019-04-28T08:58:54.864Z,10.11
2019-04-28T08:59:54.862Z,10.24
2019-04-28T09:00:54.839Z,10.18
2019-04-28T09:01:54.829Z,9.92
2019-04-28T09:02:54.821Z,9.98
2019-04-28T09:03:54.806Z,9.89
2019-04-28T09:04:54.795Z,10.09
2019-04-28T09:05:54.784Z,10.14
2019-04-28T09:06:54.780Z,10.24
2019-04-28T09:07:54.764Z,10.28
2019-04-28T09:08:54.752Z,10.32
2019-04-28T09:09:54.743Z,10.51
2019-04-28T09:10:54.729Z,10.76
2019-04-28T09:11:54.718Z,10.98
2019-04-28T09:12:54.707Z,11.20
2019-04-28T09:13:54.696Z,11.27
2019-04-28T09:14:54.685Z,11.36
2019-04-28T09:15:54.676Z,11.38
2019-04-28T09:16:54.661Z,11.44
2019-04-28T09:17:54.651Z,11.63
2019-04-28T09:18:54.641Z,11.74
2019-04-28T09:19:54.631Z,11.85
2019-04-28T09:20:54.620Z,11.97
2019-04-28T09:21:54.611Z,12.00
2019-04-28T09:22:54.599Z,12.15
2019-04-28T09:23:54.592Z,12.12
2019-04-28T09:24:54.576Z,12.31
2019-04-28T09:25:54.574Z,12.37
2019-04-28T09:26:54.558Z,12.37
2019-04-28T09:27:54.549Z,12.46
2019-04-28T09:28:54.534Z,12.69
2019-04-28T09:29:54.525Z,12.71
2019-04-28T09:30:54.516Z,12.94
2019-04-28T09:31:54.509Z,13.04
2019-04-28T09:32:54.497Z,13.06
2019-04-28T09:33:54.488Z,13.10
2019-04-28T09:34:54.478Z,13.14
2019-04-28T09:35:54.468Z,13.14
2019-04-28T09:36:54.457Z,13.17
2019-04-28T09:37:54.448Z,13.07
2019-04-28T09:38:54.439Z,12.99
2019-04-28T09:39:54.426Z,13.09
2019-04-28T09:40:54.418Z,13.01
2019-04-28T09:41:54.408Z,13.10
2019-04-28T09:42:54.398Z,13.09
2019-04-28T09:43:54.391Z,13.10
2019-04-28T09:44:54.379Z,13.14
2019-04-28T09:45:54.370Z,13.13
2019-04-28T09:46:54.363Z,13.22
2019-04-28T09:47:54.352Z,13.41
2019-04-28T09:48:54.339Z,13.54
2019-04-28T09:49:54.332Z,13.65
2019-04-28T09:50:54.323Z,13.68
2019-04-28T09:51:54.312Z,13.61
2019-04-28T09:52:54.302Z,13.59
2019-04-28T09:53:54.296Z,13.39
2019-04-28T09:54:54.365Z,13.41
2019-04-28T09:55:54.283Z,13.47
2019-04-28T09:56:56.788Z,13.50
2019-04-28T09:57:54.897Z,13.44
2019-04-28T09:58:54.249Z,13.46
2019-04-28T09:59:54.243Z,13.48
2019-04-28T10:00:54.231Z,13.51
2019-04-28T10:01:54.221Z,13.48
2019-04-28T10:02:54.213Z,13.54
2019-04-28T10:03:54.205Z,13.43
2019-04-28T10:04:54.195Z,13.32
2019-04-28T10:05:54.184Z,13.27
2019-04-28T10:06:54.175Z,13.28
2019-04-28T10:07:54.165Z,13.28
2019-04-28T10:08:54.157Z,13.03
2019-04-28T10:09:54.149Z,12.81
2019-04-28T10:10:54.193Z,12.46
2019-04-28T10:11:54.131Z,12.41
2019-04-28T10:12:54.120Z,12.40
2019-04-28T10:13:56.876Z,12.18
2019-04-28T10:14:54.101Z,12.33
2019-04-28T10:15:54.092Z,12.38
2019-04-28T10:16:54.082Z,12.43
2019-04-28T10:17:54.074Z,12.52
2019-04-28T10:18:54.061Z,12.48
2019-04-28T10:19:54.054Z,12.52
2019-04-28T10:20:54.046Z,12.71
2019-04-28T10:21:54.036Z,12.84
2019-04-28T10:22:54.025Z,12.80
2019-04-28T10:23:54.015Z,12.71
2019-04-28T10:24:54.007Z,12.74
2019-04-28T10:25:53.999Z,12.79
2019-04-28T10:26:53.989Z,12.88
2019-04-28T10:27:53.980Z,13.13
2019-04-28T10:28:53.969Z,12.94
2019-04-28T10:29:53.957Z,12.91
2019-04-28T10:30:53.952Z,12.87
2019-04-28T10:31:53.944Z,12.92
2019-04-28T10:32:53.931Z,12.66
2019-04-28T10:33:53.922Z,12.63
2019-04-28T10:34:55.144Z,12.56
2019-04-28T10:35:53.905Z,12.54
2019-04-28T10:36:53.895Z,12.11
2019-04-28T10:37:53.895Z,11.70
2019-04-28T10:38:53.878Z,11.77
2019-04-28T10:39:53.869Z,11.90
2019-04-28T10:40:53.855Z,11.82
2019-04-28T10:41:53.848Z,11.78
2019-04-28T10:42:53.837Z,11.82
2019-04-28T10:43:53.827Z,11.88
2019-04-28T10:44:53.815Z,11.74
2019-04-28T10:45:53.809Z,11.87
2019-04-28T10:46:53.800Z,11.98
2019-04-28T10:47:53.788Z,12.13
2019-04-28T10:48:53.777Z,12.18
2019-04-28T10:49:53.768Z,12.30
2019-04-28T10:50:53.764Z,12.34
2019-04-28T10:51:59.493Z,12.07
2019-04-28T10:52:53.737Z,12.12
2019-04-28T10:53:53.729Z,12.07
2019-04-28T10:54:53.719Z,12.13
2019-04-28T10:55:53.710Z,12.13
2019-04-28T10:56:53.704Z,12.05
2019-04-28T10:57:53.691Z,11.78
2019-04-28T10:58:53.679Z,11.82
2019-04-28T10:59:53.668Z,11.69
2019-04-28T11:00:53.660Z,11.64
2019-04-28T11:01:53.649Z,11.42
2019-04-28T11:02:53.639Z,11.49
2019-04-28T11:03:53.672Z,11.48
2019-04-28T11:04:53.618Z,11.48
2019-04-28T11:05:53.612Z,11.36
2019-04-28T11:06:53.599Z,11.46
2019-04-28T11:07:53.591Z,11.41
2019-04-28T11:08:53.579Z,11.38
2019-04-28T11:09:53.569Z,11.35
2019-04-28T11:10:53.561Z,11.31
2019-04-28T11:11:53.550Z,11.31
2019-04-28T11:12:53.540Z,11.35
2019-04-28T11:13:53.527Z,11.38
2019-04-28T11:14:53.519Z,11.44
2019-04-28T11:15:53.509Z,11.62
2019-04-28T11:16:53.499Z,11.84
2019-04-28T11:17:53.487Z,11.90
2019-04-28T11:18:53.477Z,12.08
2019-04-28T11:19:53.469Z,12.23
2019-04-28T11:20:53.456Z,12.33
2019-04-28T11:21:53.447Z,12.49
2019-04-28T11:22:53.438Z,12.62
2019-04-28T11:23:53.428Z,12.69
2019-04-28T11:24:53.421Z,12.81
2019-04-28T11:25:53.406Z,12.95
2019-04-28T11:26:53.399Z,12.95
2019-04-28T11:27:55.511Z,13.01
2019-04-28T11:28:53.379Z,13.03
2019-04-28T11:29:53.368Z,13.09
2019-04-28T11:30:53.362Z,13.22
2019-04-28T11:31:53.350Z,13.25
2019-04-28T11:32:53.341Z,13.31
2019-04-28T11:33:53.331Z,13.46
2019-04-28T11:34:53.322Z,13.36
2019-04-28T11:35:53.311Z,13.46
2019-04-28T11:36:53.302Z,13.36
2019-04-28T11:37:53.293Z,13.39
2019-04-28T11:38:53.284Z,13.43
2019-04-28T11:39:53.276Z,13.39
2019-04-28T11:40:53.288Z,13.39
2019-04-28T11:41:53.257Z,13.29
2019-04-28T11:42:53.246Z,13.36
2019-04-28T11:43:53.243Z,13.27
2019-04-28T11:44:53.227Z,12.96
2019-04-28T11:45:53.219Z,12.85
2019-04-28T11:46:53.213Z,12.88
2019-04-28T11:47:53.200Z,13.07
2019-04-28T11:48:53.191Z,13.47
2019-04-28T11:49:53.183Z,13.72
2019-04-28T11:50:53.174Z,13.86
2019-04-28T11:51:53.164Z,14.16
2019-04-28T11:52:53.154Z,14.29
2019-04-28T11:53:53.145Z,14.46
2019-04-28T11:54:53.136Z,14.52
2019-04-28T11:55:53.130Z,14.64
2019-04-28T11:56:53.118Z,14.64
2019-04-28T11:57:53.110Z,14.69
2019-04-28T11:58:53.103Z,14.79
2019-04-28T11:59:54.146Z,14.78
2019-04-28T12:00:53.086Z,14.61
2019-04-28T12:01:53.079Z,14.63
2019-04-28T12:02:53.069Z,14.60
2019-04-28T12:03:53.063Z,14.69
2019-04-28T12:04:53.051Z,14.78
2019-04-28T12:05:53.042Z,14.86
2019-04-28T12:06:53.035Z,14.90
2019-04-28T12:07:53.024Z,14.87
2019-04-28T12:08:53.017Z,14.72
2019-04-28T12:10:03.800Z,14.61
2019-04-28T12:10:53.004Z,14.63
2019-04-28T12:11:53.042Z,14.63
2019-04-28T12:12:52.988Z,14.71
2019-04-28T12:13:52.978Z,14.60
2019-04-28T12:14:52.969Z,14.67
2019-04-28T12:15:52.960Z,14.63
2019-04-28T12:16:52.951Z,14.42
2019-04-28T12:17:52.944Z,14.41
2019-04-28T12:18:52.934Z,14.39
2019-04-28T12:19:52.931Z,14.45
2019-04-28T12:20:52.919Z,14.38
2019-04-28T12:21:52.910Z,14.41
2019-04-28T12:22:52.908Z,14.45
2019-04-28T12:23:52.895Z,14.48
2019-04-28T12:24:52.887Z,14.44
2019-04-28T12:25:52.876Z,14.56
2019-04-28T12:26:52.870Z,14.46
2019-04-28T12:27:52.864Z,14.54
2019-04-28T12:28:52.859Z,14.56
2019-04-28T12:29:52.846Z,14.57
2019-04-28T12:30:52.836Z,14.56
2019-04-28T12:31:52.832Z,14.52
2019-04-28T12:32:52.817Z,14.57
2019-04-28T12:33:52.811Z,14.42
2019-04-28T12:34:52.803Z,14.20
2019-04-28T12:35:52.799Z,14.17
2019-04-28T12:36:52.788Z,14.17
2019-04-28T12:37:52.779Z,14.11
2019-04-28T12:38:52.770Z,13.98
2019-04-28T12:39:52.761Z,13.87
2019-04-28T12:40:52.755Z,13.86
2019-04-28T12:41:52.743Z,13.72
2019-04-28T12:42:52.734Z,13.66
2019-04-28T12:43:52.727Z,13.63
2019-04-28T12:44:52.718Z,13.62
2019-04-28T12:45:52.709Z,13.65
2019-04-28T12:46:52.701Z,13.63
2019-04-28T12:47:52.692Z,13.62
2019-04-28T12:48:52.684Z,13.62
2019-04-28T12:49:52.677Z,13.59
2019-04-28T12:50:52.671Z,13.38
2019-04-28T12:51:52.659Z,13.38
2019-04-28T12:52:52.653Z,12.92
2019-04-28T12:53:52.643Z,12.74
2019-04-28T12:54:52.633Z,12.59
2019-04-28T12:55:52.625Z,12.63
2019-04-28T12:56:52.614Z,12.55
2019-04-28T12:57:52.610Z,12.30
2019-04-28T12:58:52.596Z,12.26
2019-04-28T12:59:53.227Z,12.13
2019-04-28T13:00:52.580Z,12.13
2019-04-28T13:01:52.569Z,12.03
2019-04-28T13:02:52.561Z,12.00
2019-04-28T13:03:52.551Z,12.00
2019-04-28T13:04:52.580Z,11.93
2019-04-28T13:06:02.383Z,11.84
2019-04-28T13:06:52.525Z,11.82
2019-04-28T13:07:52.516Z,11.84
2019-04-28T13:08:52.503Z,11.77
2019-04-28T13:09:52.495Z,11.75